createdAt,value
2022-10-05T19:13:19.519Z,11.90
2022-10-05T19:16:03.083Z,16.30
2022-10-05T19:19:07.978Z,13.60
2022-10-05T19:21:47.291Z,13.80
2022-10-05T19:25:01.054Z,13.00
2022-10-05T19:27:51.800Z,11.90
2022-10-05T19:30:44.505Z,15.40
2022-10-05T19:33:40.634Z,12.00
2022-10-05T19:36:30.109Z,11.80
2022-10-05T19:39:06.373Z,10.90
2022-10-05T19:41:55.027Z,12.70
2022-10-05T19:44:44.599Z,11.50
2022-10-05T19:47:22.501Z,10.80
2022-10-05T19:49:53.238Z,10.30
2022-10-05T19:52:26.121Z,9.20
2022-10-05T19:55:12.930Z,12.30
2022-10-05T19:57:53.084Z,11.00
2022-10-05T20:00:33.240Z,11.00
2022-10-05T20:03:14.472Z,13.00
2022-10-05T20:05:42.796Z,12.30
2022-10-05T20:08:20.009Z,10.80
2022-10-05T20:11:09.454Z,8.90
2022-10-05T20:13:40.190Z,8.40
2022-10-05T20:16:36.085Z,9.10
2022-10-05T20:19:51.595Z,14.80
2022-10-05T20:22:33.168Z,9.40
2022-10-05T20:25:07.603Z,8.10
2022-10-05T20:27:37.400Z,8.30
2022-10-05T20:30:06.923Z,8.60
2022-10-05T20:32:50.791Z,8.80
2022-10-05T20:35:23.852Z,7.70
2022-10-05T20:38:12.709Z,9.70
2022-10-05T20:40:40.780Z,7.80
2022-10-05T20:43:33.224Z,8.70
2022-10-05T20:46:01.294Z,8.90
2022-10-05T20:48:29.623Z,7.70
2022-10-05T20:50:58.051Z,8.90
2022-10-05T20:53:26.123Z,8.60
2022-10-05T20:55:54.195Z,10.90
2022-10-05T20:58:23.948Z,7.50
2022-10-05T21:01:11.057Z,9.20
2022-10-05T21:03:39.195Z,6.90
2022-10-05T21:06:07.805Z,12.80
2022-10-05T21:08:37.499Z,7.80
2022-10-05T21:11:09.247Z,7.70
2022-10-05T21:16:18.693Z,9.40
2022-10-05T21:18:48.926Z,9.50
2022-10-05T21:21:18.031Z,7.20
2022-10-05T21:23:47.421Z,9.60
2022-10-05T21:26:16.292Z,10.00
2022-10-05T21:28:44.655Z,10.20
2022-10-05T21:31:12.786Z,7.00
2022-10-05T21:33:41.242Z,10.10
2022-10-05T21:36:09.621Z,6.50
2022-10-05T21:38:37.962Z,6.80
2022-10-05T21:41:05.969Z,6.30
2022-10-05T21:43:35.270Z,9.20
2022-10-05T21:46:03.738Z,7.50
2022-10-05T21:48:33.972Z,10.20
2022-10-05T21:51:02.760Z,9.60
2022-10-05T21:53:34.108Z,7.40
2022-10-05T21:56:04.637Z,8.00
2022-10-05T21:58:32.810Z,8.30
2022-10-05T22:01:00.928Z,6.90
2022-10-05T22:03:29.880Z,7.90
2022-10-05T22:05:57.991Z,7.20
2022-10-05T22:08:29.511Z,5.50
2022-10-05T22:13:27.718Z,6.70
2022-10-05T22:15:56.759Z,6.10
2022-10-05T22:18:27.133Z,6.90
2022-10-05T22:20:55.387Z,7.60
2022-10-05T22:23:23.456Z,6.20
2022-10-05T22:25:51.530Z,7.20
2022-10-05T22:28:19.723Z,6.70
2022-10-05T22:30:47.977Z,6.80
2022-10-05T22:33:16.052Z,7.60
2022-10-05T22:35:44.326Z,8.40
2022-10-05T22:38:12.397Z,10.90
2022-10-05T22:40:40.569Z,9.10
2022-10-05T22:43:08.951Z,8.60
2022-10-05T22:45:37.152Z,6.90
2022-10-05T22:48:05.912Z,6.50
2022-10-05T22:50:33.982Z,7.30
2022-10-05T22:53:02.054Z,9.70
2022-10-05T22:55:30.227Z,7.80
2022-10-05T22:57:58.298Z,7.70
2022-10-05T23:00:40.528Z,5.90
2022-10-05T23:03:16.255Z,5.50
2022-10-05T23:05:44.325Z,10.00
2022-10-05T23:08:12.394Z,7.40
2022-10-05T23:10:40.466Z,7.40
2022-10-05T23:13:08.947Z,6.40
2022-10-05T23:15:37.018Z,6.70
2022-10-05T23:18:05.091Z,5.20
2022-10-05T23:20:33.160Z,7.30
2022-10-05T23:23:01.232Z,5.20
2022-10-05T23:25:29.308Z,8.40
2022-10-05T23:27:57.397Z,6.80
2022-10-05T23:30:25.470Z,7.20
2022-10-05T23:32:53.621Z,6.40
2022-10-05T23:35:21.691Z,6.10
2022-10-05T23:37:49.660Z,6.60
2022-10-05T23:40:17.937Z,7.70
2022-10-05T23:42:47.237Z,6.60
2022-10-05T23:45:15.307Z,5.50
2022-10-05T23:47:43.379Z,4.80
2022-10-05T23:50:11.451Z,9.40
2022-10-05T23:52:39.523Z,5.70
2022-10-05T23:55:07.926Z,6.20
2022-10-05T23:57:35.974Z,4.90
